Flight Track Log - Related Links

Times and Time Zones

All times are in EDT time to prevent confusion due to time zone crossing. See the ASQ3819 flight status page for this flight to view local times or setup timezone preferences in your user account.


Time Position Orientation Groundspeed Altitude Reporting Facility
EDT Latitude Longitude Course Direction KTS MPH feet Rate Location/Type
Wed 06:45:54 PM 41.9500 -87.9500 166° South 162 186 2,500  Level Chicago TRACON
Wed 06:46:48 PM 41.9167 -87.9833 217° Southwest 197 227 4,000 980 Climbing Chicago TRACON
Wed 06:48:27 PM 41.8317 -87.9942 185° South 245 282 5,000 1,118 Climbing Chicago Center
Wed 06:49:29 PM 41.7803 -87.9225 134° Southeast 264 304 7,000 2,016 Climbing Chicago Center
Wed 06:50:32 PM 41.7125 -87.8503 141° Southeast 290 334 9,200 1,872 Climbing Chicago Center
Wed 06:51:00 PM 41.3696 -87.5565 166° South  Level FlightAware Approximate
Wed 06:51:34 PM 41.6431 -87.7822 144° Southeast 301 346 10,900  Level Chicago Center
Wed 06:52:36 PM 41.5703 -87.7117 144° Southeast 317 365 13,000 1,694 Climbing Chicago Center
Wed 06:53:38 PM 41.4961 -87.6408 144° Southeast 324 373 14,400 1,210 Climbing Chicago Center
Wed 06:54:40 PM 41.4044 -87.5694 150° Southeast 362 417 15,500 968 Climbing Chicago Center
Wed 06:55:42 PM 41.3022 -87.5508 172° South 369 425 16,400 871 Climbing Chicago Center
Wed 06:56:44 PM 41.1875 -87.5297 172° South 385 443 17,300 774 Climbing Chicago Center
Wed 06:57:46 PM 41.0767 -87.4997 168° South 405 466 18,000 774 Climbing Chicago Center
Wed 06:58:48 PM 40.9725 -87.4725 169° South 408 470 18,900 919 Climbing Chicago Center
Wed 06:59:50 PM 40.8589 -87.4403 168° South 414 476 19,900 1,065 Climbing Chicago Center
Wed 07:00:52 PM 40.7200 -87.4053 169° South 418 481 21,100 1,065 Climbing Chicago Center
Wed 07:01:54 PM 40.6047 -87.3753 169° South 419 482 22,100 988 Climbing Chicago Center
Wed 07:03:36 PM 40.4144 -87.3031 164° South 422 486 23,800 982 Climbing Indianapolis Center
Wed 07:04:39 PM 40.3167 -87.2086 144° Southeast 438 504 24,800 912 Climbing Indianapolis Center
Wed 07:05:41 PM 40.2183 -87.1181 145° Southeast 437 503 25,700 919 Climbing Indianapolis Center
Wed 07:06:43 PM 40.1206 -87.0264 144° Southeast 437 503 26,700 968 Climbing Indianapolis Center
Wed 07:07:45 PM 40.0244 -86.9356 144° Southeast 433 498 27,700 1,065 Climbing Indianapolis Center
Wed 07:08:47 PM 39.9067 -86.8369 147° Southeast 425 489 28,900 1,065 Climbing Indianapolis Center
Wed 07:09:49 PM 39.8089 -86.7567 148° Southeast 424 488 29,900 968 Climbing Indianapolis Center
Wed 07:10:51 PM 39.7144 -86.6694 145° Southeast 423 487 30,900 968 Climbing Indianapolis Center
Wed 07:11:53 PM 39.6517 -86.5378 122° Southeast 432 497 31,900 1,016 Climbing Indianapolis Center
Wed 07:12:55 PM 39.5817 -86.3753 119° Southeast 433 498 33,000 532 Climbing Indianapolis Center
Wed 07:13:57 PM 39.5211 -86.2378 120° Southeast 443 510 33,000  Level Indianapolis Center
Wed 07:14:59 PM 39.4578 -86.0936 120° Southeast 458 527 33,000  Level Indianapolis Center
Wed 07:16:01 PM 39.3936 -85.9475 120° Southeast 466 536 33,000  Level Indianapolis Center
Wed 07:17:02 PM 39.3269 -85.7986 120° Southeast 474 545 33,000  Level Indianapolis Center
Wed 07:18:04 PM 39.2386 -85.6242 123° Southeast 482 555 33,000  Level Indianapolis Center
Wed 07:19:06 PM 39.1522 -85.4931 130° Southeast 482 555 33,000  Level Indianapolis Center
Wed 07:20:08 PM 39.0661 -85.3592 130° Southeast 483 556 33,000  Level Indianapolis Center
Wed 07:21:10 PM 38.9811 -85.2256 129° Southeast 483 556 33,000  Level Indianapolis Center
Wed 07:22:12 PM 38.8933 -85.0925 130° Southeast 485 558 33,000  Level Indianapolis Center
Wed 07:23:14 PM 38.8064 -84.9583 130° Southeast 486 559 33,000  Level Indianapolis Center
Wed 07:24:16 PM 38.7014 -84.7986 130° Southeast 487 560 33,000  Level Indianapolis Center
Wed 07:25:18 PM 38.6219 -84.6775 130° Southeast 487 560 33,000  Level Indianapolis Center
Wed 07:26:19 PM 38.5331 -84.5433 130° Southeast 489 563 33,000  Level Indianapolis Center
Wed 07:27:21 PM 38.4297 -84.3886 130° Southeast 491 565 33,000  Level Indianapolis Center
Wed 07:28:23 PM 38.3411 -84.2547 130° Southeast 491 565 33,000  Level Indianapolis Center
Wed 07:29:25 PM 38.2525 -84.1225 130° Southeast 491 565 33,000  Level Indianapolis Center
Wed 07:30:27 PM 38.1631 -83.9900 131° Southeast 491 565 33,000  Level Indianapolis Center
Wed 07:31:29 PM 38.0733 -83.8569 131° Southeast 491 565 33,000  Level Indianapolis Center
Wed 07:32:31 PM 37.9839 -83.7217 130° Southeast 493 567 33,000  Level Indianapolis Center
Wed 07:33:33 PM 37.8792 -83.5678 131° Southeast 494 568 33,000  Level Indianapolis Center
Wed 07:34:34 PM 37.7878 -83.4414 132° Southeast 491 565 33,000  Level Indianapolis Center
Wed 07:35:37 PM 37.6822 -83.3364 142° Southeast 485 558 33,000  Level Indianapolis Center
Wed 07:36:38 PM 37.5767 -83.2333 142° Southeast 483 556 33,000 -341 Level Indianapolis Center
Wed 07:37:40 PM 37.4708 -83.1289 142° Southeast 482 555 32,300 -823 Descending Indianapolis Center
Wed 07:38:42 PM 37.3639 -83.0239 142° Southeast 483 556 31,300 -919 Descending Indianapolis Center
Wed 07:39:44 PM 37.2578 -82.9197 142° Southeast 483 556 30,400 -1,016 Descending Indianapolis Center
Wed 07:40:46 PM 37.1336 -82.7989 142° Southeast 483 556 29,200 -677 Descending Indianapolis Center
Wed 07:41:48 PM 37.0247 -82.6936 142° Southeast 482 555 29,000 -97 Descending Indianapolis Center
Wed 07:42:50 PM 36.9153 -82.5869 142° Southeast 484 557 29,000  Level Indianapolis Center
Wed 07:43:52 PM 36.8061 -82.4808 142° Southeast 487 560 29,000 -387 Level Indianapolis Center
Wed 07:44:54 PM 36.6911 -82.3867 147° Southeast 488 562 28,200 -919 Descending Indianapolis Center
Wed 07:45:43 PM 36.5861 -82.3092 149° Southeast 489 563 27,300 -1,046 Descending Atlanta Center
Wed 07:46:43 PM 36.4661 -82.2214 150° Southeast 497 572 26,300 -1,000 Descending Atlanta Center
Wed 07:47:43 PM 36.3481 -82.1311 148° Southeast 497 572 25,300 -950 Descending Atlanta Center
Wed 07:48:43 PM 36.2444 -82.0564 150° Southeast 492 566 24,400 -1,150 Descending Atlanta Center
Wed 07:49:43 PM 36.1283 -81.9694 149° Southeast 492 566 23,000 -1,800 Descending Atlanta Center
Wed 07:50:43 PM 36.0144 -81.8850 149° Southeast 492 566 20,800 -5,500 Descending Atlanta Center
Wed 07:51:43 PM 35.9044 -81.8033 149° Southeast 479 551 12,000 -2,629 Descending Atlanta Center
Wed 07:52:12 PM 35.8431 -81.7639 152° Southeast 460 529 16,900 3,900 Climbing Atlanta Center
Wed 07:52:43 PM 35.7986 -81.7267 146° Southeast 462 532 15,900 -2,734 Descending Atlanta Center
Wed 07:53:31 PM 35.7014 -81.6606 151° Southeast 427 491 13,300 -2,600 Descending Atlanta Center
Wed 07:53:43 PM 35.6950 -81.6531 136° Southeast 449 517 13,300 -1,300 Level Atlanta Center
Wed 07:54:31 PM 35.6103 -81.5839 146° Southeast 385 443 12,000 -1,300 Descending Atlanta Center
Wed 07:54:43 PM 35.6017 -81.5792 156° South 424 488 12,000  Level Atlanta Center
Wed 07:55:32 PM 35.5481 -81.4939 128° Southeast 322 371 12,000  Level Atlanta Center
Wed 07:55:43 PM 35.5372 -81.4817 137° Southeast 354 407 12,000  Level Atlanta Center
Wed 07:56:39 PM 35.4856 -81.4042 129° Southeast 323 372 12,000  Level Atlanta Center
Wed 07:56:43 PM 35.4811 -81.3967 126° Southeast 340 391 12,000  Level Atlanta Center
Wed 07:57:34 PM 35.4317 -81.3217 129° Southeast 332 382 12,000  Level Atlanta Center
Wed 07:57:43 PM 35.4208 -81.3067 132° Southeast 335 386 12,000 -787 Level Atlanta Center
Wed 07:58:35 PM 35.3711 -81.2344 130° Southeast 336 387 11,200 -1,000 Descending Atlanta Center
Wed 07:58:43 PM 35.3603 -81.2197 132° Southeast 335 386 11,000 -1,111 Descending Atlanta Center
Wed 07:59:29 PM 35.3192 -81.1547 128° Southeast 327 376 10,200 -1,000 Descending Atlanta Center
Wed 07:59:43 PM 35.3042 -81.1375 137° Southeast 328 377 10,000 -984 Descending Atlanta Center
Wed 08:00:30 PM 35.2528 -81.0808 138° Southeast 304 350 9,200 -900 Descending Atlanta Center
Wed 08:00:43 PM 35.2400 -81.0736 155° Southeast 311 358 9,100 -787 Descending Atlanta Center
Wed 08:01:31 PM 35.1733 -81.0683 176° South 287 330 8,400 -900 Descending Atlanta Center
Wed 08:01:43 PM 35.1564 -81.0667 175° South 290 334 8,200 -1,164 Descending Atlanta Center
Wed 08:02:38 PM 35.0897 -81.0614 176° South 284 327 7,100 -1,241 Descending Atlanta Center
Wed 08:03:39 PM 35.0058 -81.0517 175° South 272 313 5,800 -1,033 Descending Atlanta Center
Wed 08:04:40 PM 34.9853 -80.9814 110° East 255 293 5,000 -879 Descending Atlanta Center
Wed 08:05:35 PM 35.0392 -80.9567 21° North 223 257 4,100 -1,138 Descending Atlanta Center
Wed 08:06:36 PM 35.1017 -80.9619 356° North 223 257 2,800 -1,125 Descending Atlanta Center
Wed 08:07:43 PM 35.1583 -80.9672 356° North 170 196 1,700 -893 Descending Atlanta Center
Wed 08:08:37 PM 35.1936 -80.9686 358° North 125 144 1,000 -778 Descending Atlanta Center

Login

Don't have an account? Register now (free) for customized features, flight alerts, and more!